Nearby METAR Reports

 

KNUQ - Moffett Nas/Mtn, California, USA
Distance from station: N 9mi, 14km
Updated: Wed, 08-Dec-2021 2:15am PST
Overcast
Overcast
 Wind from calm
Wind: Calm
Temperature: 50°F , 10°C
Dew Point: 50°F , 10°C
Humidity: 100%
Barometer: 30.07 inHg , 1018.3 hPa
Clouds: Overcast
Visibility: 8 miles , 13 km
Cloud details: Few Clouds 500 ft
Mostly Cloudy 1400 ft
Overcast 1800 ft
2021/12/08 10:15 KNUQ 081015Z AUTO 00000KT 8SM FEW005 BKN014 OVC018 10/10 A3007 RMK AO2
KSJC - San Jose, California, USA
Distance from station: NE 9mi, 14km
Updated: Wed, 08-Dec-2021 2:24am PST
Overcast
Overcast
 Wind from calm
Wind: Calm
Temperature: 50°F , 10°C
Dew Point: 46°F , 8°C
Humidity: 88%
Barometer: 30.07 inHg , 1018.3 hPa
Clouds: Overcast
Visibility: 8 miles , 13 km
Cloud details: Overcast 800 ft
2021/12/08 10:24 KSJC 081024Z AUTO 00000KT 8SM OVC008 10/08 A3007 RMK AO2 T01000083
 
KRHV - San Jose/Reid, California, USA
Distance from station: ENE 12mi, 19km
Updated: Tue, 07-Dec-2021 9:50pm PST
NOT Current
Clear
Clear
 Wind from calm
Wind: Calm
Temperature: 48°F , 9°C
Dew Point: 46°F , 8°C
Humidity: 94%
Barometer: 30.04 inHg , 1017.3 hPa
Clouds: Clear
Visibility: 8 miles , 13 km
2021/12/08 05:50 KRHV 080550Z 00000KT 8SM SKC 09/08 A3004 RMK LAST
KPAO - Palo Alto, California, USA
Distance from station: NNW 14mi, 23km
Updated: Tue, 07-Dec-2021 8:47pm PST
NOT Current
Clear
Clear
 Wind from varies
Wind: varies 3 mph , 6 km/h
Temperature: 46°F , 8°C
Dew Point: 45°F , 7°C
Humidity: 93%
Barometer: 30.04 inHg , 1017.3 hPa
Clouds: Clear
Visibility: 10 miles , 16 km
2021/12/08 04:47 KPAO 080447Z VRB03KT 10SM SKC 08/07 A3004 RMK LAST
 
KSQL - San Carlos Airpo, California, USA
Distance from station: NW 21mi, 34km
Updated: Wed, 08-Dec-2021 2:15am PST
Overcast
Overcast
 Wind from calm
Wind: Calm
Temperature: 52°F , 11°C
Dew Point: 50°F , 10°C
Humidity: 94%
Barometer: 30.07 inHg , 1018.3 hPa
Clouds: Overcast
Visibility: 10 miles , 16 km
Cloud details: Overcast 600 ft
2021/12/08 10:15 KSQL 081015Z AUTO 00000KT 10SM OVC006 11/10 A3007 RMK AO2
KWVI - Watsonville, California, USA
Distance from station: SSE 27mi, 44km
Updated: Wed, 08-Dec-2021 1:53am PST
Mist, Clear
Mist, Clear
 Wind from calm
Wind: Calm
Temperature: 46°F , 8°C
Dew Point: 46°F , 8°C
Humidity: 100%
Barometer: 30.04 inHg , 1017.3 hPa
Summary: Mist
Clouds: Clear
Visibility: 6 miles , 10 km
2021/12/08 09:53 KWVI 080953Z AUTO 00000KT 6SM BR CLR 08/08 A3004 RMK AO2 SLP174 T00830078
 
KHWD - Hayward, California, USA
Distance from station: N 28mi, 44km
Updated: Wed, 08-Dec-2021 1:54am PST
Overcast
Overcast
 Wind from E
Wind: E 5 mph , 7 km/h
Temperature: 52°F , 11°C
Dew Point: 46°F , 8°C
Humidity: 82%
Barometer: 30.05 inHg , 1017.6 hPa
Clouds: Overcast
Visibility: 8 miles , 13 km
Cloud details: Overcast 600 ft
2021/12/08 09:54 KHWD 080954Z AUTO 09004KT 8SM OVC006 11/08 A3005 RMK AO2 CIG 006V010 SLP186 T01110083
KSFO - San Francisco, California, USA
Distance from station: NW 30mi, 49km
Updated: Wed, 08-Dec-2021 1:56am PST
Overcast
Overcast
 Wind from calm
Wind: Calm
Temperature: 54°F , 12°C
Dew Point: 52°F , 11°C
Humidity: 94%
Barometer: 30.05 inHg , 1017.6 hPa
Clouds: Overcast
Visibility: 10 miles , 16 km
Cloud details: Mostly Cloudy 800 ft
Overcast 1200 ft
2021/12/08 09:56 KSFO 080956Z 00000KT 10SM BKN008 OVC012 12/11 A3005 RMK AO2 SLP176 T01220106 $
 
KHAF - Half Moon Bay, California, USA
Distance from station: WNW 31mi, 50km
Updated: Wed, 08-Dec-2021 2:15am PST
Clear
Clear
 Wind from ESE
Wind: ESE 7 mph , 11 km/h
Temperature: 50°F , 10°C
Wind Chill: 47°F , 8°C
Dew Point: 50°F , 10°C
Humidity: 100%
Barometer: 30.04 inHg , 1017.3 hPa
Clouds: Clear
Visibility: 10 miles , 16 km
2021/12/08 10:15 KHAF 081015Z AUTO 12006KT 10SM CLR 10/10 A3004 RMK AO2
KOAK - Oakland, California, USA
Distance from station: NNW 31mi, 50km
Updated: Wed, 08-Dec-2021 2:06am PST
Partly Cloudy
Partly Cloudy
 Wind from calm
Wind: Calm
Temperature: 52°F , 11°C
Dew Point: 52°F , 11°C
Humidity: 100%
Barometer: 30.06 inHg , 1017.9 hPa
Clouds: Partly Cloudy
Visibility: 10 miles , 16 km
Cloud details: Partly Cloudy 900 ft
2021/12/08 10:06 KOAK 081006Z 00000KT 10SM SCT009 11/11 A3006 RMK AO2 T01060106
 
KLVK - Livermore, California, USA
Distance from station: NNE 31mi, 51km
Updated: Wed, 08-Dec-2021 2:16am PST
Overcast
Overcast
 Wind from calm
Wind: Calm
Temperature: 46°F , 8°C
Dew Point: 45°F , 7°C
Humidity: 93%
Barometer: 30.06 inHg , 1017.9 hPa
Clouds: Overcast
Visibility: 10 miles , 16 km
Cloud details: Overcast 900 ft
2021/12/08 10:16 KLVK 081016Z AUTO 00000KT 10SM OVC009 08/07 A3006 RMK AO2 T00830072
KCVH - Hollister Muni, California, USA
Distance from station: SE 42mi, 68km
Updated: Wed, 08-Dec-2021 2:15am PST
Mist, Clear
Mist, Clear
 Wind from calm
Wind: Calm
Temperature: 45°F , 7°C
Dew Point: 45°F , 7°C
Humidity: 100%
Barometer: 30.06 inHg , 1017.9 hPa
Summary: Mist
Clouds: Clear
Visibility: 3 miles , 5 km
2021/12/08 10:15 KCVH 081015Z AUTO 00000KT 3SM BR CLR 07/07 A3006 RMK A01
 
KSNS - Salinas, California, USA
Distance from station: SSE 48mi, 77km
Updated: Wed, 08-Dec-2021 1:53am PST
Mist, Overcast
Mist, Overcast
 Wind from SE
Wind: SE 9 mph , 15 km/h
Temperature: 52°F , 11°C
Dew Point: 52°F , 11°C
Humidity: 100%
Barometer: 30.02 inHg , 1016.6 hPa
Summary: Mist
Clouds: Overcast
Visibility: 3/4 mile , 1.2 km
Cloud details: Overcast 200 ft
2021/12/08 09:53 KSNS 080953Z AUTO 14008KT 3/4SM R31/2200V5000FT BR OVC002 11/11 A3002 RMK AO2 SLP174 T01110106
KMRY - Monterey, California, USA
Distance from station: SSE 49mi, 78km
Updated: Wed, 08-Dec-2021 2:26am PST
Mist, Overcast
Mist, Overcast
 Wind from NNW
Wind: NNW 3 mph , 6 km/h
Temperature: 52°F , 11°C
Dew Point: 48°F , 9°C
Humidity: 88%
Barometer: 30.05 inHg , 1017.6 hPa
Summary: Mist
Clouds: Overcast
Visibility: 6 miles , 10 km
Cloud details: Few Clouds 400 ft
Partly Cloudy 1600 ft
Overcast 3100 ft
2021/12/08 10:26 KMRY 081026Z AUTO 33003KT 6SM BR FEW004 SCT016 OVC031 11/09 A3005 RMK AO2 T01110094
 
KCCR - Concord, California, USA
Distance from station: N 50mi, 81km
Updated: Wed, 08-Dec-2021 1:53am PST
Mist, Overcast
Mist, Overcast
 Wind from S
Wind: S 7 mph , 11 km/h
Temperature: 50°F , 10°C
Wind Chill: 47°F , 8°C
Dew Point: 48°F , 9°C
Humidity: 94%
Barometer: 30.05 inHg , 1017.6 hPa
Summary: Mist
Clouds: Overcast
Visibility: 5 miles , 8 km
Cloud details: Overcast 800 ft
2021/12/08 09:53 KCCR 080953Z AUTO 18006KT 5SM BR OVC008 10/09 A3005 RMK AO2 SLP163 T01000089

Metar display script from Saratoga-Weather.org